Time;durP1;ratioP1;P1;durP2;ratioP2;P2;SDS_P1;SDS_P2;PMS_P1;PMS_P2;Temp;Humidity;BMP_temperature;BMP_pressure;BME280_temperature;BME280_humidity;BME280_pressure;Samples;Min_cycle;Max_cycle;Signal;HPM_P1;HPM_P2
2022/04/04 00:00:51;;;;;;;3.83;1.80;;;;;;;;;;6311821;22;20012;-88
2022/04/04 00:03:20;;;;;;;4.68;1.70;;;;;;;;;;6306287;22;20069;-88
2022/04/04 00:05:48;;;;;;;7.00;2.45;;;;;;;;;;6284817;22;20019;-88
2022/04/04 00:08:15;;;;;;;6.95;1.75;;;;;;;;;;6247609;22;20020;-87
2022/04/04 00:10:43;;;;;;;4.20;1.60;;;;;;;;;;6247717;22;20527;-88
2022/04/04 00:13:11;;;;;;;5.88;1.67;;;;;;;;;;6284562;22;20028;-88
2022/04/04 00:15:41;;;;;;;7.38;2.42;;;;;;;;;;6259838;22;20054;-84
2022/04/04 00:18:11;;;;;;;4.82;1.70;;;;;;;;;;6285310;22;20026;-85
2022/04/04 00:20:39;;;;;;;10.02;2.10;;;;;;;;;;6285458;22;20023;-84
2022/04/04 00:23:12;;;;;;;8.82;2.15;;;;;;;;;;6285285;22;20015;-86
2022/04/04 00:25:40;;;;;;;3.92;1.58;;;;;;;;;;6257484;22;20062;-84
2022/04/04 00:28:09;;;;;;;3.65;1.80;;;;;;;;;;6247636;22;20056;-84
2022/04/04 00:30:38;;;;;;;5.03;1.90;;;;;;;;;;6287476;22;20016;-82
2022/04/04 00:33:08;;;;;;;5.07;1.98;;;;;;;;;;6288775;22;20649;-82
2022/04/04 00:35:36;;;;;;;4.90;1.83;;;;;;;;;;6261167;22;20081;-83
2022/04/04 00:38:06;;;;;;;3.10;1.50;;;;;;;;;;6258504;22;20011;-87
2022/04/04 00:40:34;;;;;;;9.30;2.35;;;;;;;;;;6285969;22;20088;-86
2022/04/04 00:43:02;;;;;;;5.05;2.08;;;;;;;;;;6284976;22;20063;-86
2022/04/04 00:45:29;;;;;;;3.53;2.08;;;;;;;;;;6285047;22;20045;-86
2022/04/04 00:47:57;;;;;;;2.78;1.63;;;;;;;;;;6247823;22;20024;-87
2022/04/04 00:50:26;;;;;;;7.85;1.80;;;;;;;;;;6285104;22;20034;-86
2022/04/04 00:52:54;;;;;;;4.70;1.83;;;;;;;;;;6258101;22;20499;-87
2022/04/04 00:55:22;;;;;;;5.80;2.00;;;;;;;;;;6258031;22;20019;-87
2022/04/04 00:57:51;;;;;;;4.03;1.52;;;;;;;;;;6258003;22;20046;-87
2022/04/04 01:00:20;;;;;;;5.85;1.95;;;;;;;;;;6248287;22;20057;-88
2022/04/04 01:02:47;;;;;;;4.57;2.08;;;;;;;;;;6257006;22;20011;-87
2022/04/04 01:05:16;;;;;;;5.95;2.05;;;;;;;;;;6257365;22;20012;-87
2022/04/04 01:07:44;;;;;;;4.25;1.77;;;;;;;;;;6284716;22;20026;-87
2022/04/04 01:10:12;;;;;;;3.28;1.80;;;;;;;;;;6284155;22;20019;-86
2022/04/04 01:12:53;;;;;;;6.40;2.00;;;;;;;;;;6284819;22;20030;-87
2022/04/04 01:15:26;;;;;;;8.27;2.03;;;;;;;;;;6284671;22;20020;-87
2022/04/04 01:17:53;;;;;;;8.10;2.10;;;;;;;;;;6233697;22;20053;-87
2022/04/04 01:20:21;;;;;;;4.10;1.88;;;;;;;;;;6272863;22;20165;-86
2022/04/04 01:22:51;;;;;;;5.63;2.05;;;;;;;;;;6258604;22;20019;-89
2022/04/04 01:25:27;;;;;;;4.28;2.00;;;;;;;;;;6284565;22;20171;-89
2022/04/04 01:27:56;;;;;;;6.78;2.42;;;;;;;;;;6284547;22;20419;-87
2022/04/04 01:30:26;;;;;;;4.57;2.15;;;;;;;;;;6284252;22;20454;-88
2022/04/04 01:32:54;;;;;;;4.03;1.60;;;;;;;;;;6284992;22;20019;-87
2022/04/04 01:35:22;;;;;;;4.63;1.95;;;;;;;;;;6284197;22;20121;-87
2022/04/04 01:37:50;;;;;;;5.25;2.38;;;;;;;;;;6258067;22;20055;-87
2022/04/04 01:40:17;;;;;;;4.38;2.00;;;;;;;;;;6247197;22;20682;-88
2022/04/04 01:42:48;;;;;;;4.72;2.25;;;;;;;;;;6258018;22;20114;-87
2022/04/04 01:45:16;;;;;;;4.07;2.08;;;;;;;;;;6257989;22;20019;-87
2022/04/04 01:47:45;;;;;;;7.40;2.58;;;;;;;;;;6284428;22;20015;-87
2022/04/04 01:50:14;;;;;;;6.13;2.70;;;;;;;;;;6258887;22;20091;-87
2022/04/04 01:53:25;;;;;;;8.63;2.17;;;;;;;;;;6284219;22;20133;-87
2022/04/04 01:55:30;;;;;;;6.78;2.95;;;;;;;;;;6250851;22;20442;-87
2022/04/04 01:57:58;;;;;;;5.07;2.53;;;;;;;;;;6284106;22;20126;-87
2022/04/04 02:00:26;;;;;;;4.60;2.45;;;;;;;;;;6283823;22;20089;-87
2022/04/04 02:02:55;;;;;;;5.85;2.50;;;;;;;;;;6258912;22;20364;-87
2022/04/04 02:05:22;;;;;;;9.20;2.40;;;;;;;;;;6284488;22;20095;-87
2022/04/04 02:07:50;;;;;;;4.85;2.42;;;;;;;;;;6284615;22;20095;-85
2022/04/04 02:10:19;;;;;;;7.68;2.38;;;;;;;;;;6284283;22;20438;-85
2022/04/04 02:12:46;;;;;;;4.68;2.22;;;;;;;;;;6257400;22;20015;-86
2022/04/04 02:15:14;;;;;;;9.18;2.20;;;;;;;;;;6247227;22;20082;-86
2022/04/04 02:17:42;;;;;;;5.22;2.55;;;;;;;;;;6247228;22;20019;-87
2022/04/04 02:20:11;;;;;;;7.70;2.80;;;;;;;;;;6284044;22;20016;-87
2022/04/04 02:22:38;;;;;;;5.90;2.60;;;;;;;;;;6284149;22;20030;-86
2022/04/04 02:25:07;;;;;;;6.07;2.55;;;;;;;;;;6283635;22;20035;-87
2022/04/04 02:27:34;;;;;;;5.53;2.40;;;;;;;;;;6283373;22;20287;-86
2022/04/04 02:30:02;;;;;;;5.60;2.80;;;;;;;;;;6220470;22;20030;-86
2022/04/04 02:32:31;;;;;;;5.00;2.53;;;;;;;;;;6285256;22;20062;-87
2022/04/04 02:34:58;;;;;;;5.40;3.10;;;;;;;;;;6257649;22;20458;-87
2022/04/04 02:37:26;;;;;;;7.03;2.67;;;;;;;;;;6257329;22;20020;-87
2022/04/04 02:39:54;;;;;;;11.82;2.78;;;;;;;;;;6257269;22;20081;-87
2022/04/04 02:42:22;;;;;;;5.57;2.33;;;;;;;;;;6283754;22;20023;-86
2022/04/04 02:44:51;;;;;;;5.63;2.72;;;;;;;;;;6283795;22;20387;-86
2022/04/04 02:47:18;;;;;;;7.20;2.80;;;;;;;;;;6257130;22;20074;-85
2022/04/04 02:49:47;;;;;;;5.57;2.75;;;;;;;;;;6283939;22;20023;-86
2022/04/04 02:52:14;;;;;;;6.18;2.67;;;;;;;;;;6233245;22;20422;-86
2022/04/04 02:54:42;;;;;;;9.40;3.83;;;;;;;;;;6285999;22;20027;-87
2022/04/04 02:57:14;;;;;;;5.38;2.67;;;;;;;;;;6286223;22;20502;-87
2022/04/04 02:59:42;;;;;;;5.07;3.08;;;;;;;;;;6286510;22;20016;-88
2022/04/04 03:02:11;;;;;;;10.18;2.72;;;;;;;;;;6285670;22;20016;-87
2022/04/04 03:04:40;;;;;;;6.95;2.90;;;;;;;;;;6286222;22;20019;-87
2022/04/04 03:07:09;;;;;;;4.45;2.40;;;;;;;;;;6285974;22;20161;-87
2022/04/04 03:09:37;;;;;;;5.50;2.50;;;;;;;;;;6259274;22;20011;-86
2022/04/04 03:12:06;;;;;;;5.90;2.53;;;;;;;;;;6285560;22;20346;-87
2022/04/04 03:14:34;;;;;;;7.63;2.88;;;;;;;;;;6223352;22;20020;-87
2022/04/04 03:17:02;;;;;;;9.38;2.83;;;;;;;;;;6258990;22;20023;-86
2022/04/04 03:19:30;;;;;;;8.70;3.03;;;;;;;;;;6285669;22;20023;-87
2022/04/04 03:21:58;;;;;;;7.93;2.45;;;;;;;;;;6248197;22;20069;-86
2022/04/04 03:24:26;;;;;;;4.93;2.90;;;;;;;;;;6285945;22;20095;-87
2022/04/04 03:26:54;;;;;;;8.07;2.45;;;;;;;;;;6258661;22;20040;-87
2022/04/04 03:29:22;;;;;;;4.75;2.75;;;;;;;;;;6285187;22;20030;-86
2022/04/04 03:31:51;;;;;;;5.13;2.50;;;;;;;;;;6285919;22;20026;-87
2022/04/04 03:34:19;;;;;;;7.10;2.90;;;;;;;;;;6285783;22;20023;-87
2022/04/04 03:36:48;;;;;;;6.10;2.40;;;;;;;;;;6259042;22;20805;-86
2022/04/04 03:39:20;;;;;;;6.03;2.70;;;;;;;;;;6286111;22;20143;-87
2022/04/04 03:41:49;;;;;;;6.30;2.50;;;;;;;;;;6285766;22;20023;-86
2022/04/04 03:44:17;;;;;;;4.25;2.20;;;;;;;;;;6285233;22;20442;-86
2022/04/04 03:46:44;;;;;;;4.95;2.55;;;;;;;;;;6258728;22;20030;-86
2022/04/04 03:49:12;;;;;;;5.70;2.60;;;;;;;;;;6285304;22;20015;-86
2022/04/04 03:51:40;;;;;;;5.32;2.53;;;;;;;;;;6285898;22;20217;-86
2022/04/04 03:54:09;;;;;;;5.55;2.70;;;;;;;;;;6285550;22;20023;-86
2022/04/04 03:56:36;;;;;;;10.05;2.72;;;;;;;;;;6285590;22;20080;-85
2022/04/04 03:59:04;;;;;;;5.45;2.72;;;;;;;;;;6285133;22;20016;-87
2022/04/04 04:01:32;;;;;;;5.10;2.65;;;;;;;;;;6233882;22;20391;-85
2022/04/04 04:04:00;;;;;;;5.07;2.97;;;;;;;;;;6285028;22;20033;-86
2022/04/04 04:06:31;;;;;;;7.60;2.95;;;;;;;;;;6285579;22;20517;-87
2022/04/04 04:08:59;;;;;;;6.50;2.60;;;;;;;;;;6285145;22;20019;-87
2022/04/04 04:11:28;;;;;;;6.90;3.15;;;;;;;;;;6285684;22;20016;-87
2022/04/04 04:14:00;;;;;;;4.55;2.35;;;;;;;;;;6285436;22;20106;-86
2022/04/04 04:16:31;;;;;;;7.18;2.67;;;;;;;;;;6259090;22;20015;-88
2022/04/04 04:18:58;;;;;;;5.82;2.70;;;;;;;;;;6258622;22;20012;-88
2022/04/04 04:21:27;;;;;;;5.85;2.70;;;;;;;;;;6258749;22;20047;-86
2022/04/04 04:23:55;;;;;;;5.45;2.72;;;;;;;;;;6284627;22;20023;-87
2022/04/04 04:26:25;;;;;;;6.90;2.63;;;;;;;;;;6247788;22;20031;-87
2022/04/04 04:28:52;;;;;;;4.68;2.38;;;;;;;;;;6285555;22;20029;-87
2022/04/04 04:31:21;;;;;;;5.35;2.30;;;;;;;;;;6285101;22;20046;-87
2022/04/04 04:33:49;;;;;;;7.25;2.30;;;;;;;;;;6284989;22;20067;-86
2022/04/04 04:36:17;;;;;;;5.32;2.25;;;;;;;;;;6247860;22;20030;-87
2022/04/04 04:38:44;;;;;;;7.32;2.47;;;;;;;;;;6223341;22;20050;-87
2022/04/04 04:41:12;;;;;;;4.93;2.50;;;;;;;;;;6233356;22;20438;-87
2022/04/04 04:43:41;;;;;;;5.88;2.53;;;;;;;;;;6285201;22;20020;-86
2022/04/04 04:46:08;;;;;;;5.78;2.50;;;;;;;;;;6284880;22;20081;-85
2022/04/04 04:48:39;;;;;;;6.47;2.42;;;;;;;;;;6258991;22;20115;-86
2022/04/04 04:51:07;;;;;;;5.63;2.58;;;;;;;;;;6258117;22;20012;-86
2022/04/04 04:53:35;;;;;;;8.18;2.38;;;;;;;;;;6284848;22;20315;-87
2022/04/04 04:56:03;;;;;;;5.50;2.80;;;;;;;;;;6258857;22;20055;-87
2022/04/04 04:58:31;;;;;;;5.53;2.42;;;;;;;;;;6284314;22;20098;-86
2022/04/04 05:00:58;;;;;;;4.22;2.40;;;;;;;;;;6247498;22;20022;-86
2022/04/04 05:03:27;;;;;;;6.22;3.03;;;;;;;;;;6285146;22;20026;-83
2022/04/04 05:05:55;;;;;;;5.10;2.72;;;;;;;;;;6285530;22;20046;-85
2022/04/04 05:08:23;;;;;;;7.47;3.10;;;;;;;;;;6258547;22;20047;-86
2022/04/04 05:10:52;;;;;;;6.43;3.15;;;;;;;;;;6258307;22;20034;-88
2022/04/04 05:13:19;;;;;;;5.88;3.35;;;;;;;;;;6285351;22;20019;-87
2022/04/04 05:15:47;;;;;;;7.90;3.10;;;;;;;;;;6285048;22;20015;-87
2022/04/04 05:18:16;;;;;;;6.90;2.83;;;;;;;;;;6285454;22;20446;-88
2022/04/04 05:20:43;;;;;;;6.53;2.95;;;;;;;;;;6285760;22;20046;-87
2022/04/04 05:23:11;;;;;;;6.88;3.60;;;;;;;;;;6259172;22;20019;-88
2022/04/04 05:25:40;;;;;;;6.60;3.30;;;;;;;;;;6259014;22;20019;-86
2022/04/04 05:28:10;;;;;;;10.00;3.53;;;;;;;;;;6287656;22;20031;-86
2022/04/04 05:30:38;;;;;;;7.25;4.07;;;;;;;;;;6288167;22;20034;-87
2022/04/04 05:33:09;;;;;;;8.73;3.75;;;;;;;;;;6257631;22;20015;-88
2022/04/04 05:35:36;;;;;;;10.35;4.13;;;;;;;;;;6258327;22;20098;-86
2022/04/04 05:38:05;;;;;;;7.57;3.90;;;;;;;;;;6284492;22;20500;-88
2022/04/04 05:40:34;;;;;;;7.95;4.10;;;;;;;;;;6222973;22;20027;-86
2022/04/04 05:43:02;;;;;;;8.55;4.30;;;;;;;;;;6258061;22;20024;-86
2022/04/04 05:45:30;;;;;;;9.32;4.82;;;;;;;;;;6258045;22;20020;-86
2022/04/04 05:47:58;;;;;;;11.02;4.57;;;;;;;;;;6249600;22;20020;-86
2022/04/04 05:50:27;;;;;;;8.93;4.85;;;;;;;;;;6222623;22;20394;-80
2022/04/04 05:52:55;;;;;;;8.57;4.60;;;;;;;;;;6284812;22;20023;-80
2022/04/04 05:55:22;;;;;;;8.45;4.57;;;;;;;;;;6257313;22;20026;-79
2022/04/04 05:57:51;;;;;;;11.25;6.00;;;;;;;;;;6284548;22;20015;-79
2022/04/04 06:00:19;;;;;;;9.40;5.68;;;;;;;;;;6283446;22;20043;-80
2022/04/04 06:02:47;;;;;;;10.93;5.18;;;;;;;;;;6256574;22;20026;-79
2022/04/04 06:05:15;;;;;;;11.40;5.38;;;;;;;;;;6283139;22;20020;-79
2022/04/04 06:07:43;;;;;;;11.85;5.47;;;;;;;;;;6221639;22;20398;-80
2022/04/04 06:10:13;;;;;;;11.48;6.57;;;;;;;;;;6257370;22;20065;-83
2022/04/04 06:12:43;;;;;;;12.85;6.80;;;;;;;;;;6259400;22;20050;-79
2022/04/04 06:15:11;;;;;;;10.85;5.57;;;;;;;;;;6233028;22;20434;-79
2022/04/04 06:17:39;;;;;;;12.63;6.00;;;;;;;;;;6285040;22;20023;-82
2022/04/04 06:20:08;;;;;;;12.98;6.40;;;;;;;;;;6284263;22;20091;-80
2022/04/04 06:22:45;;;;;;;13.40;6.13;;;;;;;;;;6285144;22;20069;-80
2022/04/04 06:25:13;;;;;;;14.07;6.82;;;;;;;;;;6257988;22;20016;-80
2022/04/04 06:27:41;;;;;;;11.30;6.75;;;;;;;;;;6257332;22;20024;-80
2022/04/04 06:30:09;;;;;;;15.73;7.25;;;;;;;;;;6257232;22;20027;-80
2022/04/04 06:32:41;;;;;;;14.48;6.72;;;;;;;;;;6280281;22;20015;-80
2022/04/04 06:35:09;;;;;;;15.77;7.68;;;;;;;;;;6256817;22;20066;-80
2022/04/04 06:37:37;;;;;;;14.02;7.85;;;;;;;;;;6283692;22;20026;-80
2022/04/04 06:40:05;;;;;;;13.80;7.55;;;;;;;;;;6222115;22;20066;-80
2022/04/04 06:42:36;;;;;;;15.00;7.85;;;;;;;;;;6283894;22;20758;-80
2022/04/04 06:45:06;;;;;;;16.38;7.75;;;;;;;;;;6255639;22;20126;-80
2022/04/04 06:47:34;;;;;;;11.82;7.20;;;;;;;;;;6280422;22;20103;-80
2022/04/04 06:50:05;;;;;;;14.68;7.75;;;;;;;;;;6282083;22;20020;-80
2022/04/04 06:52:37;;;;;;;17.98;7.95;;;;;;;;;;6282517;22;20020;-80
2022/04/04 06:55:28;;;;;;;12.18;7.03;;;;;;;;;;6248626;22;20057;-80
2022/04/04 06:57:58;;;;;;;15.90;7.45;;;;;;;;;;6256163;22;20086;-80
2022/04/04 07:00:27;;;;;;;15.63;8.30;;;;;;;;;;6246257;22;20020;-80
2022/04/04 07:02:58;;;;;;;14.10;8.02;;;;;;;;;;6281173;22;20640;-80
2022/04/04 07:05:27;;;;;;;17.50;8.00;;;;;;;;;;6255443;22;20020;-80
2022/04/04 07:07:55;;;;;;;18.60;8.57;;;;;;;;;;6282030;22;20086;-80
2022/04/04 07:10:23;;;;;;;21.40;9.02;;;;;;;;;;6283988;22;20031;-80
2022/04/04 07:12:54;;;;;;;18.88;9.90;;;;;;;;;;6283763;22;20061;-80
2022/04/04 07:15:23;;;;;;;15.38;8.55;;;;;;;;;;6256727;22;20358;-80
2022/04/04 07:17:50;;;;;;;13.10;8.50;;;;;;;;;;6282531;22;20046;-80
2022/04/04 07:20:19;;;;;;;16.33;8.35;;;;;;;;;;6282753;22;20050;-81
2022/04/04 07:22:47;;;;;;;17.60;9.57;;;;;;;;;;6256907;22;20422;-80
2022/04/04 07:25:15;;;;;;;15.82;8.57;;;;;;;;;;6246647;22;20031;-80
2022/04/04 07:27:45;;;;;;;18.83;9.95;;;;;;;;;;6282476;22;20019;-80
2022/04/04 07:30:16;;;;;;;19.95;9.90;;;;;;;;;;6282671;22;20027;-80
2022/04/04 07:32:47;;;;;;;15.48;8.85;;;;;;;;;;6256078;22;20024;-80
2022/04/04 07:35:15;;;;;;;14.38;7.75;;;;;;;;;;6255580;22;20019;-81
2022/04/04 07:37:45;;;;;;;17.58;8.63;;;;;;;;;;6283767;22;20081;-80
2022/04/04 07:40:15;;;;;;;21.33;9.75;;;;;;;;;;6285174;22;20015;-81
2022/04/04 07:42:44;;;;;;;14.27;7.95;;;;;;;;;;6285125;22;20102;-80
2022/04/04 07:45:15;;;;;;;15.88;9.07;;;;;;;;;;6284876;22;20031;-82
2022/04/04 07:47:43;;;;;;;11.98;7.35;;;;;;;;;;6258756;22;20024;-80
2022/04/04 07:50:13;;;;;;;15.35;8.82;;;;;;;;;;6258381;22;20012;-81
2022/04/04 07:52:41;;;;;;;14.25;8.30;;;;;;;;;;6259216;22;20015;-81
2022/04/04 07:55:09;;;;;;;16.02;9.35;;;;;;;;;;6285951;22;20051;-80
2022/04/04 07:57:37;;;;;;;15.10;8.52;;;;;;;;;;6285621;22;20015;-80
2022/04/04 08:00:07;;;;;;;14.07;8.82;;;;;;;;;;6284955;22;20091;-80
2022/04/04 08:02:35;;;;;;;15.45;7.90;;;;;;;;;;6284832;22;20396;-80
2022/04/04 08:05:07;;;;;;;16.60;9.52;;;;;;;;;;6285635;22;20069;-80
2022/04/04 08:07:36;;;;;;;14.63;8.20;;;;;;;;;;6258454;22;20043;-80
2022/04/04 08:10:04;;;;;;;19.00;8.70;;;;;;;;;;6247624;22;20442;-80
2022/04/04 08:12:33;;;;;;;15.77;8.65;;;;;;;;;;6285852;22;20050;-80
2022/04/04 08:15:00;;;;;;;16.25;9.15;;;;;;;;;;6222817;22;20098;-80
2022/04/04 08:17:29;;;;;;;13.50;8.80;;;;;;;;;;6257490;22;20131;-80
2022/04/04 08:19:57;;;;;;;16.05;8.95;;;;;;;;;;6284920;22;20509;-81
2022/04/04 08:22:25;;;;;;;17.05;9.50;;;;;;;;;;6259050;22;20479;-80
2022/04/04 08:24:52;;;;;;;15.45;8.93;;;;;;;;;;6285655;22;20020;-80
2022/04/04 08:27:22;;;;;;;14.52;9.07;;;;;;;;;;6284617;22;20015;-81
2022/04/04 08:29:49;;;;;;;17.92;10.18;;;;;;;;;;6257828;22;20054;-80
2022/04/04 08:32:17;;;;;;;14.30;8.20;;;;;;;;;;6246296;22;20020;-80
2022/04/04 08:34:45;;;;;;;15.07;9.52;;;;;;;;;;6284996;22;20020;-80
2022/04/04 08:37:13;;;;;;;13.55;8.90;;;;;;;;;;6284204;22;20027;-80
2022/04/04 08:39:44;;;;;;;16.02;9.52;;;;;;;;;;6285402;22;20377;-80
2022/04/04 08:42:11;;;;;;;13.55;8.60;;;;;;;;;;6285232;22;20016;-80
2022/04/04 08:44:39;;;;;;;15.98;8.70;;;;;;;;;;6259361;22;20020;-81
2022/04/04 08:47:07;;;;;;;13.57;9.18;;;;;;;;;;6284372;22;20065;-80
2022/04/04 08:49:37;;;;;;;11.82;7.80;;;;;;;;;;6258666;22;20027;-80
2022/04/04 08:52:06;;;;;;;17.20;9.48;;;;;;;;;;6258147;22;20016;-80
2022/04/04 08:54:32;;;;;;;13.68;8.50;;;;;;;;;;6232496;22;20065;-80
2022/04/04 08:57:01;;;;;;;16.55;8.98;;;;;;;;;;6284977;22;20118;-80
2022/04/04 08:59:29;;;;;;;20.45;9.60;;;;;;;;;;6284516;22;20020;-80
2022/04/04 09:01:57;;;;;;;12.88;8.50;;;;;;;;;;6256831;22;20026;-80
2022/04/04 09:04:24;;;;;;;13.80;8.77;;;;;;;;;;6257731;22;20458;-80
2022/04/04 09:06:54;;;;;;;14.25;7.80;;;;;;;;;;6257011;22;20020;-80
2022/04/04 09:09:37;;;;;;;14.73;8.77;;;;;;;;;;6285587;22;20073;-80
2022/04/04 09:12:05;;;;;;;15.25;8.25;;;;;;;;;;6284627;22;20073;-80
2022/04/04 09:14:51;;;;;;;15.02;9.13;;;;;;;;;;6284600;22;20020;-80
2022/04/04 09:17:21;;;;;;;14.38;8.38;;;;;;;;;;6284232;22;20016;-80
2022/04/04 09:19:49;;;;;;;14.82;7.97;;;;;;;;;;6256999;22;20093;-80
2022/04/04 09:22:18;;;;;;;15.70;8.77;;;;;;;;;;6282562;22;20012;-80
2022/04/04 09:24:55;;;;;;;13.82;8.05;;;;;;;;;;6279979;22;20016;-80
2022/04/04 09:27:30;;;;;;;13.73;7.90;;;;;;;;;;6246184;22;20434;-80
2022/04/04 09:30:03;;;;;;;13.45;8.00;;;;;;;;;;6283723;22;20099;-80
2022/04/04 09:32:38;;;;;;;17.00;8.70;;;;;;;;;;6257897;22;20011;-80
2022/04/04 09:35:12;;;;;;;12.07;7.13;;;;;;;;;;6283922;22;20164;-80
2022/04/04 09:37:43;;;;;;;12.70;7.38;;;;;;;;;;6284142;22;20370;-79
2022/04/04 09:40:15;;;;;;;11.07;7.07;;;;;;;;;;6285437;22;20411;-80
2022/04/04 09:42:52;;;;;;;13.32;7.78;;;;;;;;;;6285980;22;20095;-80
2022/04/04 09:45:26;;;;;;;14.63;8.15;;;;;;;;;;6284088;22;20012;-79
2022/04/04 09:48:19;;;;;;;14.32;8.38;;;;;;;;;;6257216;22;20024;-80
2022/04/04 09:50:49;;;;;;;12.48;7.55;;;;;;;;;;6269779;22;20070;-80
2022/04/04 09:53:21;;;;;;;14.85;7.25;;;;;;;;;;6247559;22;20023;-80
2022/04/04 09:56:00;;;;;;;9.95;6.70;;;;;;;;;;6284715;22;20015;-80
2022/04/04 09:58:30;;;;;;;11.85;6.70;;;;;;;;;;6257656;22;20084;-80
2022/04/04 10:01:00;;;;;;;12.88;7.70;;;;;;;;;;6257210;22;20018;-80
2022/04/04 10:03:31;;;;;;;12.57;7.35;;;;;;;;;;6284323;22;20741;-80
2022/04/04 10:06:05;;;;;;;12.48;6.75;;;;;;;;;;6285248;22;20458;-80
2022/04/04 10:08:36;;;;;;;13.10;7.03;;;;;;;;;;6231644;22;20019;-80
2022/04/04 10:11:05;;;;;;;11.43;6.57;;;;;;;;;;6247997;22;20106;-79
2022/04/04 10:13:33;;;;;;;13.30;6.85;;;;;;;;;;6285227;22;20027;-81
2022/04/04 10:16:01;;;;;;;11.65;7.18;;;;;;;;;;6284655;22;20091;-80
2022/04/04 10:18:29;;;;;;;15.18;7.47;;;;;;;;;;6257676;22;20725;-80
2022/04/04 10:20:57;;;;;;;12.82;6.90;;;;;;;;;;6284818;22;20012;-80
2022/04/04 10:23:27;;;;;;;12.70;6.60;;;;;;;;;;6256335;22;20015;-80
2022/04/04 10:25:58;;;;;;;11.18;6.38;;;;;;;;;;6257887;22;20026;-81
2022/04/04 10:28:33;;;;;;;11.23;7.05;;;;;;;;;;6272422;22;20026;-80
2022/04/04 10:31:10;;;;;;;11.75;6.18;;;;;;;;;;6283652;22;20012;-81
2022/04/04 10:33:39;;;;;;;10.95;6.63;;;;;;;;;;6283787;22;20016;-80
2022/04/04 10:36:22;;;;;;;10.75;7.03;;;;;;;;;;6283946;22;20473;-80
2022/04/04 10:38:54;;;;;;;12.05;6.50;;;;;;;;;;6284824;22;20019;-80
2022/04/04 10:41:28;;;;;;;14.60;6.63;;;;;;;;;;6246794;22;20099;-81
2022/04/04 10:43:56;;;;;;;11.65;6.95;;;;;;;;;;6284543;22;20073;-80
2022/04/04 10:46:24;;;;;;;10.52;6.95;;;;;;;;;;6282623;22;20019;-80
2022/04/04 10:49:02;;;;;;;12.90;7.13;;;;;;;;;;6284369;22;20043;-80
2022/04/04 10:51:36;;;;;;;12.82;7.20;;;;;;;;;;6284107;22;20012;-80
2022/04/04 10:54:10;;;;;;;12.32;7.07;;;;;;;;;;6284225;22;20046;-81
2022/04/04 10:56:41;;;;;;;10.48;6.60;;;;;;;;;;6255915;22;20016;-80
2022/04/04 10:59:15;;;;;;;13.73;7.80;;;;;;;;;;6257573;22;20039;-80
2022/04/04 11:01:48;;;;;;;11.38;6.70;;;;;;;;;;6283426;22;20047;-82
2022/04/04 11:04:27;;;;;;;12.07;7.03;;;;;;;;;;6284223;22;20020;-81
2022/04/04 11:07:38;;;;;;;11.38;7.38;;;;;;;;;;6256475;22;20019;-80
2022/04/04 11:10:10;;;;;;;12.20;7.28;;;;;;;;;;6284281;22;20043;-80
2022/04/04 11:13:07;;;;;;;10.85;6.35;;;;;;;;;;6284310;22;20435;-80
2022/04/04 11:15:49;;;;;;;11.45;7.47;;;;;;;;;;6249304;22;20020;-81
2022/04/04 11:18:17;;;;;;;10.45;6.63;;;;;;;;;;6286233;22;20073;-80
2022/04/04 11:20:50;;;;;;;13.32;7.40;;;;;;;;;;6285699;22;20487;-80
2022/04/04 11:23:18;;;;;;;13.55;7.38;;;;;;;;;;6286675;22;20047;-80
2022/04/04 11:25:51;;;;;;;11.43;7.30;;;;;;;;;;6287240;22;20023;-80
2022/04/04 11:28:22;;;;;;;14.40;7.75;;;;;;;;;;6261695;22;20075;-80
2022/04/04 11:31:01;;;;;;;12.77;7.65;;;;;;;;;;6266407;22;20016;-80
2022/04/04 11:33:29;;;;;;;12.73;8.00;;;;;;;;;;6295501;22;20043;-80
2022/04/04 11:35:58;;;;;;;11.98;7.50;;;;;;;;;;6297795;22;20045;-81
2022/04/04 11:38:25;;;;;;;12.82;7.25;;;;;;;;;;6297760;22;20062;-80
2022/04/04 11:40:53;;;;;;;11.73;6.53;;;;;;;;;;6270917;22;20088;-80
2022/04/04 11:43:26;;;;;;;13.10;8.40;;;;;;;;;;6297122;22;20365;-80
2022/04/04 11:45:53;;;;;;;11.50;7.65;;;;;;;;;;6297852;22;20027;-80
2022/04/04 11:48:24;;;;;;;11.40;7.20;;;;;;;;;;6298175;22;20015;-80
2022/04/04 11:50:57;;;;;;;10.23;7.38;;;;;;;;;;6297377;22;20123;-80
2022/04/04 11:53:28;;;;;;;12.63;7.85;;;;;;;;;;6287506;22;20016;-81
2022/04/04 11:56:00;;;;;;;11.80;6.85;;;;;;;;;;6251477;22;20020;-82
2022/04/04 11:58:29;;;;;;;12.75;7.93;;;;;;;;;;6226844;22;20089;-82
2022/04/04 12:01:04;;;;;;;13.30;7.65;;;;;;;;;;6288994;22;20018;-82
2022/04/04 12:03:33;;;;;;;11.68;7.55;;;;;;;;;;6227257;22;20024;-82
2022/04/04 12:06:06;;;;;;;12.07;7.72;;;;;;;;;;6261938;22;20020;-82
2022/04/04 12:08:36;;;;;;;12.82;7.28;;;;;;;;;;6288945;22;20342;-82
2022/04/04 12:11:05;;;;;;;12.57;7.55;;;;;;;;;;6287697;22;20046;-83
2022/04/04 12:13:32;;;;;;;12.27;8.52;;;;;;;;;;6289900;22;20024;-82
2022/04/04 12:16:00;;;;;;;11.38;7.35;;;;;;;;;;6286015;22;20019;-82
2022/04/04 12:18:29;;;;;;;13.93;7.80;;;;;;;;;;6259040;22;20034;-81
2022/04/04 12:21:02;;;;;;;12.70;8.23;;;;;;;;;;6258940;22;20373;-82
2022/04/04 12:26:23;;;;;;;11.00;7.13;;;;;;;;;;6284503;22;20453;-81
2022/04/04 12:28:52;;;;;;;9.50;6.88;;;;;;;;;;6285108;22;20077;-82
2022/04/04 12:31:25;;;;;;;11.35;6.60;;;;;;;;;;6256818;22;20015;-80
2022/04/04 12:34:06;;;;;;;11.40;7.50;;;;;;;;;;6257427;22;20435;-80
2022/04/04 12:36:40;;;;;;;10.73;6.72;;;;;;;;;;6257550;22;20054;-80
2022/04/04 12:39:18;;;;;;;11.43;7.10;;;;;;;;;;6284853;22;20029;-82
2022/04/04 12:41:53;;;;;;;11.50;7.03;;;;;;;;;;6223265;22;20020;-82
2022/04/04 12:44:26;;;;;;;11.25;7.53;;;;;;;;;;6286255;22;20027;-82
2022/04/04 12:47:08;;;;;;;11.23;7.05;;;;;;;;;;6284862;22;20454;-81
2022/04/04 12:49:35;;;;;;;14.25;8.60;;;;;;;;;;6284975;22;20446;-81
2022/04/04 12:52:23;;;;;;;11.88;7.15;;;;;;;;;;6284448;22;20042;-81
2022/04/04 12:54:54;;;;;;;10.90;6.55;;;;;;;;;;6255768;22;20016;-80
2022/04/04 12:57:27;;;;;;;13.23;6.72;;;;;;;;;;6257342;22;20441;-80
2022/04/04 12:59:58;;;;;;;12.02;7.32;;;;;;;;;;6282829;22;20050;-80
2022/04/04 13:02:31;;;;;;;11.35;7.07;;;;;;;;;;6230299;22;20086;-80
2022/04/04 13:05:11;;;;;;;12.00;7.40;;;;;;;;;;6255992;22;20019;-80
2022/04/04 13:07:54;;;;;;;12.10;6.85;;;;;;;;;;6255626;22;20022;-80
2022/04/04 13:10:24;;;;;;;10.50;6.60;;;;;;;;;;6284247;22;20015;-80
2022/04/04 13:13:14;;;;;;;10.82;7.00;;;;;;;;;;6282542;22;20377;-79
2022/04/04 13:15:45;;;;;;;8.55;5.20;;;;;;;;;;6283541;22;20019;-82
2022/04/04 13:18:33;;;;;;;9.88;5.88;;;;;;;;;;6261228;22;20502;-80
2022/04/04 13:21:01;;;;;;;9.70;5.78;;;;;;;;;;6256377;22;20094;-80
2022/04/04 13:23:29;;;;;;;10.05;6.40;;;;;;;;;;6256021;22;20035;-81
2022/04/04 13:25:57;;;;;;;9.27;6.10;;;;;;;;;;6282303;22;20107;-80
2022/04/04 13:28:25;;;;;;;10.23;5.95;;;;;;;;;;6253661;22;20342;-80
2022/04/04 13:30:56;;;;;;;10.13;6.15;;;;;;;;;;6254589;22;20019;-79
2022/04/04 13:33:23;;;;;;;9.70;6.18;;;;;;;;;;6251717;22;20015;-79
2022/04/04 13:35:51;;;;;;;9.43;6.22;;;;;;;;;;6219695;22;20050;-80
2022/04/04 13:38:19;;;;;;;11.75;6.18;;;;;;;;;;6255511;22;20023;-80
2022/04/04 13:40:47;;;;;;;9.68;5.57;;;;;;;;;;6257110;22;20438;-81
2022/04/04 13:43:15;;;;;;;8.90;5.53;;;;;;;;;;6245929;22;20049;-81
2022/04/04 13:45:43;;;;;;;9.65;5.65;;;;;;;;;;6221152;22;20027;-82
2022/04/04 13:48:11;;;;;;;9.18;5.78;;;;;;;;;;6282113;22;20134;-80
2022/04/04 13:50:39;;;;;;;8.93;5.60;;;;;;;;;;6282759;22;20490;-79
2022/04/04 13:53:07;;;;;;;10.00;5.63;;;;;;;;;;6256568;22;20025;-79
2022/04/04 13:55:35;;;;;;;8.40;5.25;;;;;;;;;;6220199;22;20098;-79
2022/04/04 13:58:03;;;;;;;7.30;4.70;;;;;;;;;;6219430;22;20430;-79
2022/04/04 14:00:31;;;;;;;9.05;5.85;;;;;;;;;;6281943;22;20030;-79
2022/04/04 14:02:59;;;;;;;8.23;5.25;;;;;;;;;;6255642;22;20105;-80
2022/04/04 14:05:28;;;;;;;9.23;4.95;;;;;;;;;;6284560;22;20024;-82
2022/04/04 14:08:13;;;;;;;7.45;5.13;;;;;;;;;;6237339;22;20062;-82
2022/04/04 14:10:42;;;;;;;9.00;4.72;;;;;;;;;;6224531;22;20070;-82
2022/04/04 14:13:10;;;;;;;8.77;5.28;;;;;;;;;;6286478;22;20066;-82
2022/04/04 14:15:37;;;;;;;8.00;4.90;;;;;;;;;;6234114;22;20020;-82
2022/04/04 14:18:06;;;;;;;6.93;4.50;;;;;;;;;;6265571;22;20012;-83
2022/04/04 14:20:35;;;;;;;9.98;4.95;;;;;;;;;;6247833;22;20027;-82
2022/04/04 14:23:03;;;;;;;9.85;5.13;;;;;;;;;;6298858;22;20046;-82
2022/04/04 14:25:29;;;;;;;9.35;5.55;;;;;;;;;;6284164;22;20450;-81
2022/04/04 14:27:57;;;;;;;9.65;5.40;;;;;;;;;;6285213;22;20015;-81
2022/04/04 14:30:26;;;;;;;8.82;5.40;;;;;;;;;;6258615;22;20027;-80
2022/04/04 14:32:54;;;;;;;7.90;5.28;;;;;;;;;;6247426;22;20034;-80
2022/04/04 14:35:21;;;;;;;8.02;5.10;;;;;;;;;;6285114;22;20019;-81
2022/04/04 14:37:50;;;;;;;8.52;5.72;;;;;;;;;;6259060;22;20082;-81
2022/04/04 14:40:17;;;;;;;8.77;5.15;;;;;;;;;;6234710;22;20046;-80
2022/04/04 14:42:45;;;;;;;7.88;4.65;;;;;;;;;;6256591;22;20019;-78
2022/04/04 14:45:14;;;;;;;7.05;4.70;;;;;;;;;;6283106;22;20092;-79
2022/04/04 14:47:42;;;;;;;8.18;5.03;;;;;;;;;;6256238;22;20074;-80
2022/04/04 14:50:10;;;;;;;10.05;5.30;;;;;;;;;;6283939;22;20023;-79
2022/04/04 14:52:40;;;;;;;8.77;4.93;;;;;;;;;;6283346;22;20020;-79
2022/04/04 14:55:09;;;;;;;7.72;4.78;;;;;;;;;;6283656;22;20377;-79